createdAt,value
2018-12-03T00:00:24.959Z,100.00
2018-12-03T00:02:57.742Z,100.00
2018-12-03T00:05:26.334Z,100.00
2018-12-03T00:07:54.881Z,100.00
2018-12-03T00:10:23.420Z,100.00
2018-12-03T00:12:51.891Z,100.00
2018-12-03T00:15:20.387Z,100.00
2018-12-03T00:17:48.916Z,100.00
2018-12-03T00:20:17.399Z,100.00
2018-12-03T00:22:46.026Z,100.00
2018-12-03T00:25:14.459Z,100.00
2018-12-03T00:27:50.242Z,100.00
2018-12-03T00:30:26.775Z,100.00
2018-12-03T00:32:55.207Z,100.00
2018-12-03T00:35:23.630Z,100.00
2018-12-03T00:37:52.152Z,100.00
2018-12-03T00:40:20.694Z,100.00
2018-12-03T00:42:49.209Z,100.00
2018-12-03T00:45:17.735Z,100.00
2018-12-03T00:47:46.239Z,100.00
2018-12-03T00:50:14.623Z,100.00
2018-12-03T00:52:43.028Z,100.00
2018-12-03T00:55:11.613Z,100.00
2018-12-03T00:57:40.015Z,100.00
2018-12-03T01:00:09.503Z,100.00
2018-12-03T01:02:37.971Z,100.00
2018-12-03T01:05:07.968Z,100.00
2018-12-03T01:07:36.575Z,100.00
2018-12-03T01:10:07.045Z,100.00
2018-12-03T01:12:35.437Z,100.00
2018-12-03T01:15:04.199Z,100.00
2018-12-03T01:17:32.556Z,100.00
2018-12-03T01:20:00.959Z,100.00
2018-12-03T01:22:29.426Z,100.00
2018-12-03T01:24:57.969Z,100.00
2018-12-03T01:27:26.923Z,100.00
2018-12-03T01:29:55.835Z,100.00
2018-12-03T01:32:24.944Z,100.00
2018-12-03T01:34:53.409Z,100.00
2018-12-03T01:37:21.797Z,100.00
2018-12-03T01:39:50.307Z,100.00
2018-12-03T01:42:18.704Z,100.00
2018-12-03T01:44:47.947Z,100.00
2018-12-03T01:47:17.424Z,100.00
2018-12-03T01:49:45.858Z,100.00
2018-12-03T01:52:14.313Z,100.00
2018-12-03T01:54:43.020Z,100.00
2018-12-03T01:57:11.473Z,100.00
2018-12-03T01:59:39.975Z,100.00
2018-12-03T02:02:08.440Z,100.00
2018-12-03T02:04:36.829Z,100.00
2018-12-03T02:07:05.467Z,100.00
2018-12-03T02:09:33.878Z,100.00
2018-12-03T02:12:02.303Z,100.00
2018-12-03T02:14:30.645Z,100.00
2018-12-03T02:16:59.216Z,100.00
2018-12-03T02:19:27.967Z,100.00
2018-12-03T02:21:56.444Z,100.00
2018-12-03T02:24:24.825Z,100.00
2018-12-03T02:26:53.382Z,100.00
2018-12-03T02:29:21.792Z,100.00
2018-12-03T02:31:50.180Z,100.00
2018-12-03T02:34:18.589Z,100.00
2018-12-03T02:36:47.042Z,100.00
2018-12-03T02:39:15.496Z,100.00
2018-12-03T02:41:43.909Z,100.00
2018-12-03T02:44:12.316Z,100.00
2018-12-03T02:46:41.369Z,100.00
2018-12-03T02:49:10.278Z,100.00
2018-12-03T02:51:38.756Z,100.00
2018-12-03T02:54:07.208Z,100.00
2018-12-03T02:56:36.474Z,100.00
2018-12-03T02:59:04.988Z,100.00
2018-12-03T03:01:33.441Z,100.00
2018-12-03T03:04:01.880Z,100.00
2018-12-03T03:06:30.276Z,100.00
2018-12-03T03:08:58.653Z,100.00
2018-12-03T03:11:27.304Z,100.00
2018-12-03T03:13:55.703Z,100.00
2018-12-03T03:16:24.257Z,100.00
2018-12-03T03:18:52.827Z,100.00
2018-12-03T03:21:21.627Z,100.00
2018-12-03T03:23:50.105Z,100.00
2018-12-03T03:26:18.528Z,100.00
2018-12-03T03:28:47.427Z,100.00
2018-12-03T03:31:15.891Z,100.00
2018-12-03T03:33:44.336Z,100.00
2018-12-03T03:36:12.801Z,100.00
2018-12-03T03:38:41.277Z,100.00
2018-12-03T03:41:09.734Z,100.00
2018-12-03T03:43:38.148Z,100.00
2018-12-03T03:46:06.605Z,100.00
2018-12-03T03:48:35.025Z,100.00
2018-12-03T03:51:03.453Z,100.00
2018-12-03T03:53:31.864Z,100.00
2018-12-03T03:56:00.303Z,100.00
2018-12-03T03:58:28.687Z,100.00
2018-12-03T04:00:57.802Z,100.00
2018-12-03T04:03:27.002Z,100.00
2018-12-03T04:05:55.402Z,100.00
2018-12-03T04:08:23.868Z,100.00
2018-12-03T04:10:53.008Z,100.00
2018-12-03T04:13:21.477Z,100.00
2018-12-03T04:15:49.925Z,100.00
2018-12-03T04:18:18.713Z,100.00
2018-12-03T04:20:47.131Z,100.00
2018-12-03T04:23:15.497Z,100.00
2018-12-03T04:25:44.619Z,100.00
2018-12-03T04:28:13.080Z,100.00
2018-12-03T04:30:41.480Z,100.00
2018-12-03T04:33:12.614Z,100.00
2018-12-03T04:35:41.116Z,100.00
2018-12-03T04:38:09.543Z,100.00
2018-12-03T04:40:37.975Z,100.00
2018-12-03T04:43:06.350Z,100.00
2018-12-03T04:45:34.832Z,100.00
2018-12-03T04:48:03.424Z,100.00
2018-12-03T04:50:31.869Z,100.00
2018-12-03T04:53:00.338Z,100.00
2018-12-03T04:55:29.250Z,100.00
2018-12-03T04:57:57.741Z,100.00
2018-12-03T05:00:26.212Z,100.00
2018-12-03T05:02:54.642Z,100.00
2018-12-03T05:05:23.025Z,100.00
2018-12-03T05:07:51.415Z,100.00
2018-12-03T05:10:21.532Z,100.00
2018-12-03T05:12:51.099Z,100.00
2018-12-03T05:15:19.494Z,100.00
2018-12-03T05:17:47.921Z,100.00
2018-12-03T05:20:18.715Z,100.00
2018-12-03T05:22:47.094Z,100.00
2018-12-03T05:25:19.131Z,100.00
2018-12-03T05:27:44.202Z,100.00
2018-12-03T05:30:14.778Z,100.00
2018-12-03T05:35:28.325Z,100.00
2018-12-03T05:37:56.948Z,100.00
2018-12-03T05:40:26.969Z,100.00
2018-12-03T05:42:55.410Z,100.00
2018-12-03T05:45:23.874Z,100.00
2018-12-03T05:47:53.133Z,100.00
2018-12-03T05:50:21.572Z,100.00
2018-12-03T05:52:50.037Z,100.00
2018-12-03T05:55:18.813Z,100.00
2018-12-03T05:57:47.321Z,100.00
2018-12-03T06:00:19.369Z,100.00
2018-12-03T06:02:47.856Z,100.00
2018-12-03T06:05:16.667Z,100.00
2018-12-03T06:07:45.124Z,100.00
2018-12-03T06:10:15.675Z,100.00
2018-12-03T06:12:44.113Z,100.00
2018-12-03T06:15:13.724Z,100.00
2018-12-03T06:17:42.078Z,100.00
2018-12-03T06:20:13.885Z,100.00
2018-12-03T06:22:42.354Z,100.00
2018-12-03T06:25:12.097Z,100.00
2018-12-03T06:27:40.498Z,100.00
2018-12-03T06:30:12.495Z,100.00
2018-12-03T06:32:40.955Z,100.00
2018-12-03T06:35:10.723Z,100.00
2018-12-03T06:37:39.153Z,100.00
2018-12-03T06:40:15.460Z,100.00
2018-12-03T06:42:43.874Z,100.00
2018-12-03T06:45:14.579Z,100.00
2018-12-03T06:47:53.396Z,100.00
2018-12-03T06:50:21.920Z,100.00
2018-12-03T06:52:50.294Z,100.00
2018-12-03T06:55:18.733Z,100.00
2018-12-03T06:57:47.156Z,100.00
2018-12-03T07:00:16.966Z,100.00
2018-12-03T07:02:45.442Z,100.00
2018-12-03T07:05:13.949Z,100.00
2018-12-03T07:07:43.394Z,100.00
2018-12-03T07:10:13.253Z,100.00
2018-12-03T07:12:41.993Z,100.00
2018-12-03T07:15:13.021Z,100.00
2018-12-03T07:17:41.489Z,100.00
2018-12-03T07:20:11.984Z,100.00
2018-12-03T07:22:40.723Z,100.00
2018-12-03T07:25:10.353Z,100.00
2018-12-03T07:27:38.926Z,100.00
2018-12-03T07:30:22.144Z,100.00
2018-12-03T07:32:51.127Z,100.00
2018-12-03T07:35:20.242Z,100.00
2018-12-03T07:37:49.672Z,100.00
2018-12-03T07:40:18.153Z,100.00
2018-12-03T07:42:46.618Z,100.00
2018-12-03T07:45:18.315Z,100.00
2018-12-03T07:47:46.761Z,100.00
2018-12-03T07:50:16.054Z,100.00
2018-12-03T07:52:44.519Z,100.00
2018-12-03T07:55:14.225Z,100.00
2018-12-03T07:57:45.306Z,100.00
2018-12-03T08:00:15.452Z,100.00
2018-12-03T08:02:43.872Z,100.00
2018-12-03T08:05:12.356Z,100.00
2018-12-03T08:07:40.761Z,100.00
2018-12-03T08:10:12.972Z,100.00
2018-12-03T08:12:41.573Z,100.00
2018-12-03T08:15:12.621Z,100.00
2018-12-03T08:17:41.303Z,100.00
2018-12-03T08:20:15.299Z,100.00
2018-12-03T08:22:43.691Z,100.00
2018-12-03T08:25:12.126Z,100.00
2018-12-03T08:27:40.505Z,100.00
2018-12-03T08:30:11.491Z,100.00
2018-12-03T08:32:39.888Z,100.00
2018-12-03T08:35:11.424Z,100.00
2018-12-03T08:37:39.907Z,100.00
2018-12-03T08:40:14.952Z,100.00
2018-12-03T08:42:46.128Z,100.00
2018-12-03T08:45:14.744Z,100.00
2018-12-03T08:47:43.439Z,100.00
2018-12-03T08:50:24.057Z,100.00
2018-12-03T08:52:53.093Z,100.00
2018-12-03T08:55:21.547Z,100.00
2018-12-03T08:57:49.961Z,100.00
2018-12-03T09:00:28.410Z,100.00
2018-12-03T09:03:02.129Z,100.00
2018-12-03T09:05:32.387Z,100.00
2018-12-03T09:08:00.919Z,100.00
2018-12-03T09:10:29.335Z,100.00
2018-12-03T09:12:58.511Z,100.00
2018-12-03T09:15:26.997Z,100.00
2018-12-03T09:17:55.436Z,100.00
2018-12-03T09:20:23.851Z,100.00
2018-12-03T09:22:52.273Z,100.00
2018-12-03T09:25:24.548Z,100.00
2018-12-03T09:27:53.761Z,100.00
2018-12-03T09:30:27.542Z,100.00
2018-12-03T09:32:50.610Z,100.00
2018-12-03T09:35:19.095Z,100.00
2018-12-03T09:37:47.458Z,100.00
2018-12-03T09:40:17.508Z,100.00
2018-12-03T09:42:45.933Z,99.97
2018-12-03T09:45:15.583Z,98.97
2018-12-03T09:47:44.419Z,100.00
2018-12-03T09:50:20.748Z,100.00
2018-12-03T09:52:49.397Z,100.00
2018-12-03T09:55:20.573Z,100.00
2018-12-03T09:57:56.114Z,100.00
2018-12-03T10:00:24.717Z,100.00
2018-12-03T10:02:53.191Z,100.00
2018-12-03T10:05:21.832Z,100.00
2018-12-03T10:07:50.302Z,100.00
2018-12-03T10:10:18.682Z,100.00
2018-12-03T10:12:47.103Z,100.00
2018-12-03T10:15:15.601Z,100.00
2018-12-03T10:17:47.633Z,100.00
2018-12-03T10:20:16.154Z,100.00
2018-12-03T10:22:48.917Z,100.00
2018-12-03T10:25:17.369Z,100.00
2018-12-03T10:27:46.099Z,100.00
2018-12-03T10:30:18.912Z,100.00
2018-12-03T10:32:48.891Z,100.00
2018-12-03T10:35:17.450Z,100.00
2018-12-03T10:37:46.025Z,100.00
2018-12-03T10:40:17.782Z,100.00
2018-12-03T10:42:47.192Z,100.00
2018-12-03T10:45:17.479Z,100.00
2018-12-03T10:47:45.916Z,100.00
2018-12-03T10:50:22.270Z,100.00
2018-12-03T10:52:47.347Z,100.00
2018-12-03T10:55:16.789Z,100.00
2018-12-03T10:57:45.757Z,100.00
2018-12-03T11:00:22.618Z,100.00
2018-12-03T11:02:57.986Z,100.00
2018-12-03T11:05:33.254Z,100.00
2018-12-03T11:08:01.899Z,100.00
2018-12-03T11:10:40.062Z,100.00
2018-12-03T11:13:08.490Z,100.00
2018-12-03T11:15:37.061Z,100.00
2018-12-03T11:18:06.915Z,100.00
2018-12-03T11:20:35.318Z,100.00
2018-12-03T11:23:04.053Z,100.00
2018-12-03T11:25:35.429Z,100.00
2018-12-03T11:28:06.336Z,99.53
2018-12-03T11:30:34.909Z,100.00
2018-12-03T11:33:03.382Z,98.60
2018-12-03T11:35:32.429Z,97.87
2018-12-03T11:38:11.471Z,98.52
2018-12-03T11:40:53.740Z,97.06
2018-12-03T11:43:22.602Z,96.62
2018-12-03T11:45:51.012Z,97.36
2018-12-03T11:48:19.441Z,98.54
2018-12-03T11:50:47.873Z,98.14
2018-12-03T11:53:16.390Z,98.45
2018-12-03T11:55:44.825Z,97.69
2018-12-03T11:58:13.453Z,98.48
2018-12-03T12:00:41.912Z,98.14
2018-12-03T12:03:10.650Z,97.94
2018-12-03T12:05:39.238Z,96.17
2018-12-03T12:08:07.752Z,94.64
2018-12-03T12:10:36.297Z,95.76
2018-12-03T12:13:04.863Z,93.61
2018-12-03T12:15:33.277Z,96.10
2018-12-03T12:18:01.732Z,96.14
2018-12-03T12:20:30.238Z,95.60
2018-12-03T12:22:58.611Z,94.81
2018-12-03T12:25:27.012Z,95.35
2018-12-03T12:27:57.149Z,94.98
2018-12-03T12:30:25.547Z,95.20
2018-12-03T12:32:54.012Z,96.67
2018-12-03T12:35:22.497Z,95.64
2018-12-03T12:37:56.650Z,95.45
2018-12-03T12:40:19.433Z,95.91
2018-12-03T12:42:47.861Z,93.96
2018-12-03T12:45:19.362Z,93.42
2018-12-03T12:47:47.809Z,93.32
2018-12-03T12:50:17.505Z,94.18
2018-12-03T12:52:45.936Z,93.51
2018-12-03T12:55:14.379Z,92.88
2018-12-03T12:57:42.863Z,92.50
2018-12-03T13:00:15.619Z,92.69
2018-12-03T13:02:45.647Z,91.32
2018-12-03T13:05:14.118Z,91.37
2018-12-03T13:07:42.639Z,91.47
2018-12-03T13:10:13.912Z,90.98
2018-12-03T13:12:42.389Z,88.22
2018-12-03T13:15:12.701Z,89.62
2018-12-03T13:17:42.996Z,89.45
2018-12-03T13:20:14.063Z,89.22
2018-12-03T13:22:42.698Z,88.73
2018-12-03T13:25:17.659Z,89.03
2018-12-03T13:27:46.328Z,91.17
2018-12-03T13:30:15.951Z,90.06
2018-12-03T13:32:44.746Z,90.37
2018-12-03T13:35:13.949Z,90.42
2018-12-03T13:37:42.398Z,90.47
2018-12-03T13:40:14.276Z,91.04
2018-12-03T13:42:42.817Z,90.15
2018-12-03T13:45:12.984Z,90.95
2018-12-03T13:47:41.444Z,92.19
2018-12-03T13:50:14.740Z,91.50
2018-12-03T13:52:43.593Z,93.28
2018-12-03T13:55:13.671Z,93.99
2018-12-03T13:57:42.214Z,92.62
2018-12-03T14:00:27.406Z,93.77
2018-12-03T14:03:07.300Z,91.85
2018-12-03T14:05:40.799Z,93.01
2018-12-03T14:09:23.513Z,91.85
2018-12-03T14:12:13.371Z,92.84
2018-12-03T14:16:54.702Z,92.88
2018-12-03T14:19:26.973Z,93.98
2018-12-03T14:22:03.452Z,94.08
2018-12-03T14:24:31.951Z,94.54
2018-12-03T14:27:01.040Z,95.40
2018-12-03T14:29:29.470Z,96.33
2018-12-03T14:31:57.988Z,96.15
2018-12-03T14:34:28.384Z,97.43
2018-12-03T14:36:56.964Z,98.46
2018-12-03T14:39:25.448Z,98.40
2018-12-03T14:41:53.905Z,97.44
2018-12-03T14:44:22.357Z,99.68
2018-12-03T14:46:50.766Z,98.37
2018-12-03T14:49:19.233Z,98.93
2018-12-03T14:51:47.680Z,99.59
2018-12-03T14:54:16.145Z,98.63
2018-12-03T14:56:44.767Z,99.14
2018-12-03T14:59:13.848Z,99.38
2018-12-03T15:01:42.360Z,100.00
2018-12-03T15:04:12.007Z,100.00
2018-12-03T15:06:41.394Z,100.00
2018-12-03T15:09:09.861Z,100.00
2018-12-03T15:11:38.543Z,99.51
2018-12-03T15:14:06.996Z,99.95
2018-12-03T15:16:35.948Z,99.73
2018-12-03T15:19:04.702Z,100.00
2018-12-03T15:21:32.897Z,100.00
2018-12-03T15:24:01.323Z,100.00
2018-12-03T15:26:29.810Z,100.00
2018-12-03T15:28:58.316Z,100.00
2018-12-03T15:31:26.799Z,100.00
2018-12-03T15:33:55.529Z,100.00
2018-12-03T15:36:23.959Z,100.00
2018-12-03T15:38:52.426Z,100.00
2018-12-03T15:41:20.832Z,100.00
2018-12-03T15:43:49.242Z,100.00
2018-12-03T15:46:17.667Z,100.00
2018-12-03T15:48:46.079Z,100.00
2018-12-03T15:51:14.529Z,100.00
2018-12-03T15:53:42.973Z,100.00
2018-12-03T15:56:11.900Z,100.00
2018-12-03T15:58:40.348Z,100.00
2018-12-03T16:01:14.319Z,100.00
2018-12-03T16:03:37.333Z,100.00
2018-12-03T16:06:05.731Z,100.00
2018-12-03T16:08:34.174Z,100.00
2018-12-03T16:11:02.624Z,100.00
2018-12-03T16:13:31.254Z,100.00
2018-12-03T16:15:59.653Z,100.00
2018-12-03T16:18:28.147Z,100.00
2018-12-03T16:20:57.741Z,100.00
2018-12-03T16:23:27.408Z,100.00
2018-12-03T16:25:55.989Z,100.00
2018-12-03T16:28:24.439Z,100.00
2018-12-03T16:30:56.560Z,100.00
2018-12-03T16:33:25.007Z,100.00
2018-12-03T16:35:53.523Z,100.00
2018-12-03T16:38:21.921Z,100.00
2018-12-03T16:40:50.416Z,100.00
2018-12-03T16:43:18.841Z,100.00
2018-12-03T16:45:47.474Z,100.00
2018-12-03T16:48:15.907Z,100.00
2018-12-03T16:50:44.310Z,100.00
2018-12-03T16:53:12.963Z,100.00
2018-12-03T16:55:41.469Z,100.00
2018-12-03T16:58:09.871Z,100.00
2018-12-03T17:00:38.381Z,100.00
2018-12-03T17:03:06.799Z,100.00
2018-12-03T17:05:36.079Z,100.00
2018-12-03T17:08:04.788Z,100.00
2018-12-03T17:10:34.224Z,100.00
2018-12-03T17:13:03.362Z,100.00
2018-12-03T17:15:32.096Z,100.00
2018-12-03T17:18:01.292Z,100.00
2018-12-03T17:20:47.149Z,100.00
2018-12-03T17:24:30.980Z,100.00
2018-12-03T17:27:00.080Z,100.00
2018-12-03T17:29:29.756Z,100.00
2018-12-03T17:31:59.182Z,100.00
2018-12-03T17:34:28.714Z,100.00
2018-12-03T17:37:00.680Z,100.00
2018-12-03T17:39:29.161Z,100.00
2018-12-03T17:41:57.611Z,100.00
2018-12-03T17:44:26.741Z,100.00
2018-12-03T17:46:55.774Z,100.00
2018-12-03T17:49:25.630Z,100.00
2018-12-03T17:51:54.034Z,100.00
2018-12-03T17:54:23.322Z,100.00
2018-12-03T17:56:54.002Z,100.00
2018-12-03T17:59:24.777Z,100.00
2018-12-03T18:05:42.752Z,100.00
2018-12-03T18:08:10.278Z,100.00
2018-12-03T18:10:37.763Z,100.00
2018-12-03T18:13:05.252Z,100.00
2018-12-03T18:15:34.225Z,100.00
2018-12-03T18:18:01.690Z,100.00
2018-12-03T18:20:29.175Z,100.00
2018-12-03T18:22:56.745Z,100.00
2018-12-03T18:25:24.234Z,100.00
2018-12-03T18:27:51.827Z,100.00
2018-12-03T18:30:19.898Z,100.00
2018-12-03T18:32:47.381Z,100.00
2018-12-03T18:35:15.720Z,100.00
2018-12-03T18:37:43.291Z,100.00
2018-12-03T18:40:10.792Z,100.00
2018-12-03T18:42:38.266Z,100.00
2018-12-03T18:45:06.879Z,100.00
2018-12-03T18:47:34.430Z,100.00
2018-12-03T18:50:01.977Z,100.00
2018-12-03T18:52:29.478Z,100.00
2018-12-03T18:54:56.933Z,100.00
2018-12-03T18:57:24.545Z,100.00
2018-12-03T18:59:52.559Z,100.00
2018-12-03T19:02:20.949Z,100.00
2018-12-03T19:04:48.399Z,100.00
2018-12-03T19:07:16.345Z,100.00
2018-12-03T19:09:43.813Z,100.00
2018-12-03T19:12:11.326Z,100.00
2018-12-03T19:14:38.845Z,100.00
2018-12-03T19:17:06.502Z,100.00
2018-12-03T19:19:34.012Z,100.00
2018-12-03T19:22:01.520Z,100.00
2018-12-03T19:24:29.013Z,100.00
2018-12-03T19:26:56.507Z,100.00
2018-12-03T19:29:24.765Z,100.00
2018-12-03T19:31:52.237Z,100.00
2018-12-03T19:34:19.701Z,100.00
2018-12-03T19:36:47.166Z,100.00
2018-12-03T19:39:14.644Z,100.00
2018-12-03T19:41:42.104Z,100.00
2018-12-03T19:44:09.756Z,100.00
2018-12-03T19:46:37.247Z,100.00
2018-12-03T19:49:04.827Z,100.00
2018-12-03T19:51:32.292Z,100.00
2018-12-03T19:53:59.886Z,100.00
2018-12-03T19:56:27.659Z,100.00
2018-12-03T19:58:55.204Z,100.00
2018-12-03T20:01:22.933Z,100.00
2018-12-03T20:03:51.920Z,100.00
2018-12-03T20:06:19.993Z,100.00
2018-12-03T20:08:47.474Z,100.00
2018-12-03T20:11:14.963Z,100.00
2018-12-03T20:13:42.431Z,100.00
2018-12-03T20:16:09.874Z,100.00
2018-12-03T20:18:37.446Z,100.00
2018-12-03T20:21:04.988Z,100.00
2018-12-03T20:23:32.902Z,100.00
2018-12-03T20:26:00.481Z,100.00
2018-12-03T20:28:28.070Z,100.00
2018-12-03T20:30:58.769Z,100.00
2018-12-03T20:33:27.701Z,100.00
2018-12-03T20:35:55.692Z,100.00
2018-12-03T20:38:23.362Z,100.00
2018-12-03T20:40:52.732Z,100.00
2018-12-03T20:43:20.268Z,100.00
2018-12-03T20:45:51.661Z,100.00
2018-12-03T20:48:20.720Z,100.00
2018-12-03T20:50:49.941Z,100.00
2018-12-03T20:53:24.566Z,100.00
2018-12-03T20:55:52.207Z,100.00
2018-12-03T20:58:19.745Z,100.00
2018-12-03T21:00:47.355Z,100.00
2018-12-03T21:03:14.808Z,100.00
2018-12-03T21:05:42.344Z,100.00
2018-12-03T21:08:11.679Z,100.00
2018-12-03T21:10:40.008Z,100.00
2018-12-03T21:13:07.646Z,100.00
2018-12-03T21:15:35.119Z,100.00
2018-12-03T21:18:02.664Z,100.00
2018-12-03T21:20:31.175Z,100.00
2018-12-03T21:22:59.020Z,100.00
2018-12-03T21:25:26.621Z,100.00
2018-12-03T21:27:54.300Z,100.00
2018-12-03T21:30:22.297Z,100.00
2018-12-03T21:32:49.777Z,100.00
2018-12-03T21:35:18.084Z,100.00
2018-12-03T21:37:45.700Z,100.00
2018-12-03T21:40:13.355Z,100.00
2018-12-03T21:42:40.864Z,100.00
2018-12-03T21:45:10.636Z,100.00
2018-12-03T21:47:38.189Z,100.00
2018-12-03T21:50:07.249Z,100.00
2018-12-03T21:52:35.163Z,100.00
2018-12-03T21:55:02.773Z,100.00
2018-12-03T21:57:30.311Z,100.00
2018-12-03T21:59:57.833Z,100.00
2018-12-03T22:02:25.514Z,100.00
2018-12-03T22:04:52.999Z,100.00
2018-12-03T22:07:20.640Z,100.00
2018-12-03T22:09:48.481Z,100.00
2018-12-03T22:12:15.955Z,100.00
2018-12-03T22:14:43.565Z,100.00
2018-12-03T22:17:11.249Z,100.00
2018-12-03T22:19:38.824Z,100.00
2018-12-03T22:22:06.467Z,100.00
2018-12-03T22:24:34.761Z,100.00
2018-12-03T22:27:02.234Z,100.00
2018-12-03T22:29:29.690Z,100.00
2018-12-03T22:31:57.335Z,100.00
2018-12-03T22:34:25.333Z,100.00
2018-12-03T22:36:52.821Z,100.00
2018-12-03T22:39:21.101Z,100.00
2018-12-03T22:41:49.126Z,100.00
2018-12-03T22:44:16.875Z,100.00
2018-12-03T22:46:45.662Z,100.00
2018-12-03T22:49:13.371Z,100.00
2018-12-03T22:51:41.118Z,100.00
2018-12-03T22:54:08.762Z,100.00
2018-12-03T22:56:36.254Z,100.00
2018-12-03T22:59:03.982Z,100.00
2018-12-03T23:01:31.606Z,100.00
2018-12-03T23:03:59.082Z,100.00
2018-12-03T23:06:27.715Z,100.00
2018-12-03T23:08:55.160Z,100.00
2018-12-03T23:11:24.084Z,100.00
2018-12-03T23:13:51.561Z,100.00
2018-12-03T23:16:19.050Z,100.00
2018-12-03T23:18:46.527Z,100.00
2018-12-03T23:21:13.978Z,100.00
2018-12-03T23:23:41.446Z,100.00
2018-12-03T23:26:08.890Z,100.00
2018-12-03T23:28:36.359Z,100.00
2018-12-03T23:31:04.244Z,100.00
2018-12-03T23:33:31.732Z,100.00
2018-12-03T23:35:59.208Z,100.00
2018-12-03T23:38:27.123Z,100.00
2018-12-03T23:40:54.612Z,100.00
2018-12-03T23:43:22.076Z,100.00
2018-12-03T23:45:49.529Z,100.00
2018-12-03T23:48:16.995Z,100.00
2018-12-03T23:50:44.445Z,100.00
2018-12-03T23:53:11.934Z,100.00
2018-12-03T23:55:39.382Z,100.00
2018-12-03T23:58:06.844Z,100.00
